createdAt,value
2019-03-22T00:01:40.543Z,77.20
2019-03-22T00:04:07.158Z,76.20
2019-03-22T00:06:33.861Z,75.87
2019-03-22T00:09:00.470Z,78.77
2019-03-22T00:11:27.476Z,75.83
2019-03-22T00:13:54.286Z,81.23
2019-03-22T00:16:22.275Z,77.47
2019-03-22T00:18:48.926Z,78.40
2019-03-22T00:21:15.479Z,79.40
2019-03-22T00:23:42.128Z,80.77
2019-03-22T00:26:08.769Z,82.80
2019-03-22T00:28:35.448Z,81.27
2019-03-22T00:31:02.059Z,78.83
2019-03-22T00:33:30.119Z,81.97
2019-03-22T00:35:56.770Z,78.97
2019-03-22T00:38:23.603Z,82.43
2019-03-22T00:40:50.377Z,80.33
2019-03-22T00:43:17.245Z,81.90
2019-03-22T00:45:43.852Z,82.97
2019-03-22T00:48:10.401Z,78.80
2019-03-22T00:50:37.039Z,82.63
2019-03-22T00:53:03.741Z,83.73
2019-03-22T00:55:30.454Z,85.30
2019-03-22T00:57:57.219Z,84.00
2019-03-22T01:00:23.841Z,83.53
2019-03-22T01:02:50.461Z,81.00
2019-03-22T01:05:17.221Z,83.60
2019-03-22T01:07:44.096Z,81.73
2019-03-22T01:10:12.332Z,81.90
2019-03-22T01:12:39.188Z,82.23
2019-03-22T01:15:08.363Z,88.10
2019-03-22T01:17:35.088Z,83.00
2019-03-22T01:20:06.537Z,85.63
2019-03-22T01:22:33.162Z,83.10
2019-03-22T01:25:00.506Z,82.93
2019-03-22T01:27:27.315Z,81.23
2019-03-22T01:29:54.057Z,86.27
2019-03-22T01:32:20.678Z,87.83
2019-03-22T01:34:47.418Z,86.07
2019-03-22T01:37:14.228Z,84.47
2019-03-22T01:39:40.859Z,84.70
2019-03-22T01:42:07.527Z,84.63
2019-03-22T01:44:34.155Z,82.77
2019-03-22T01:47:00.831Z,87.27
2019-03-22T01:49:27.569Z,88.77
2019-03-22T01:51:54.425Z,85.63
2019-03-22T01:54:21.040Z,86.23
2019-03-22T01:56:48.019Z,82.10
2019-03-22T01:59:14.703Z,85.10
2019-03-22T02:01:41.536Z,83.40
2019-03-22T02:04:08.223Z,85.97
2019-03-22T02:06:35.173Z,85.37
2019-03-22T02:09:02.681Z,84.27
2019-03-22T02:11:30.222Z,85.57
2019-03-22T02:13:56.916Z,88.47
2019-03-22T02:16:24.651Z,85.83
2019-03-22T02:18:51.314Z,88.03
2019-03-22T02:21:18.025Z,85.63
2019-03-22T02:23:44.671Z,89.63
2019-03-22T02:26:11.399Z,90.10
2019-03-22T02:28:39.144Z,88.13
2019-03-22T02:31:05.880Z,85.43
2019-03-22T02:33:32.510Z,88.97
2019-03-22T02:35:59.172Z,84.17
2019-03-22T02:38:27.102Z,86.00
2019-03-22T02:40:54.074Z,92.10
2019-03-22T02:43:20.676Z,86.17
2019-03-22T02:45:47.634Z,91.17
2019-03-22T02:48:14.270Z,87.90
2019-03-22T02:50:40.888Z,85.60
2019-03-22T02:53:07.510Z,86.00
2019-03-22T02:55:34.682Z,89.27
2019-03-22T02:58:01.548Z,88.43
2019-03-22T03:00:28.265Z,87.47
2019-03-22T03:02:55.001Z,92.23
2019-03-22T03:05:21.603Z,91.00
2019-03-22T03:07:48.443Z,89.43
2019-03-22T03:10:15.584Z,93.97
2019-03-22T03:12:43.044Z,93.33
2019-03-22T03:15:14.513Z,88.07
2019-03-22T03:17:41.169Z,88.67
2019-03-22T03:20:11.666Z,93.90
2019-03-22T03:22:38.584Z,92.67
2019-03-22T03:25:06.870Z,92.80
2019-03-22T03:27:33.515Z,88.67
2019-03-22T03:30:00.658Z,92.37
2019-03-22T03:32:27.472Z,90.73
2019-03-22T03:34:54.129Z,91.83
2019-03-22T03:37:20.793Z,87.97
2019-03-22T03:39:51.443Z,92.50
2019-03-22T03:42:18.519Z,93.27
2019-03-22T03:44:45.204Z,92.00
2019-03-22T03:47:12.042Z,90.40
2019-03-22T03:49:38.742Z,93.37
2019-03-22T03:52:05.374Z,95.90
2019-03-22T03:54:31.987Z,95.17
2019-03-22T03:56:58.960Z,96.17
2019-03-22T03:59:25.534Z,97.33
2019-03-22T04:01:52.198Z,96.07
2019-03-22T04:04:18.900Z,95.13
2019-03-22T04:06:45.658Z,97.83
2019-03-22T04:09:12.430Z,90.47
2019-03-22T04:11:39.020Z,96.93
2019-03-22T04:14:05.559Z,95.53
2019-03-22T04:16:32.300Z,93.33
2019-03-22T04:18:59.060Z,95.03
2019-03-22T04:21:25.785Z,100.53
2019-03-22T04:23:52.537Z,93.37
2019-03-22T04:26:19.188Z,99.23
2019-03-22T04:28:45.770Z,96.63
2019-03-22T04:31:12.420Z,92.27
2019-03-22T04:33:39.057Z,94.83
2019-03-22T04:36:05.615Z,92.57
2019-03-22T04:38:32.252Z,94.47
2019-03-22T04:40:58.867Z,97.57
2019-03-22T04:43:25.866Z,94.23
2019-03-22T04:45:53.636Z,96.73
2019-03-22T04:48:27.058Z,90.60
2019-03-22T04:50:57.481Z,94.93
2019-03-22T04:53:26.586Z,91.47
2019-03-22T04:55:56.098Z,91.50
2019-03-22T04:58:23.246Z,98.77
2019-03-22T05:00:50.656Z,97.40
2019-03-22T05:03:18.906Z,95.87
2019-03-22T05:05:46.399Z,98.40
2019-03-22T05:08:14.730Z,105.30
2019-03-22T05:10:42.562Z,117.77
2019-03-22T05:13:11.512Z,122.23
2019-03-22T05:15:40.502Z,130.87
2019-03-22T05:18:07.908Z,103.90
2019-03-22T05:20:35.694Z,97.77
2019-03-22T05:23:03.421Z,97.23
2019-03-22T05:25:31.586Z,123.63
2019-03-22T05:27:58.810Z,102.67
2019-03-22T05:30:50.554Z,122.83
2019-03-22T05:33:17.201Z,131.73
2019-03-22T05:35:43.794Z,140.97
2019-03-22T05:38:10.816Z,160.80
2019-03-22T05:40:38.515Z,128.97
2019-03-22T05:43:06.421Z,140.73
2019-03-22T05:45:33.036Z,174.23
2019-03-22T05:47:59.776Z,156.00
2019-03-22T05:50:26.578Z,124.30
2019-03-22T05:52:53.265Z,166.53
2019-03-22T05:55:19.922Z,144.83
2019-03-22T05:57:46.604Z,121.50
2019-03-22T06:00:15.327Z,146.97
2019-03-22T06:02:42.003Z,98.20
2019-03-22T06:05:08.652Z,130.53
2019-03-22T06:07:37.083Z,167.10
2019-03-22T06:10:05.581Z,130.97
2019-03-22T06:12:32.218Z,129.57
2019-03-22T06:14:58.952Z,119.07
2019-03-22T06:17:25.698Z,99.33
2019-03-22T06:19:52.296Z,106.00
2019-03-22T06:22:18.913Z,100.17
2019-03-22T06:24:45.552Z,97.00
2019-03-22T06:27:12.202Z,123.20
2019-03-22T06:29:38.944Z,97.80
2019-03-22T06:32:05.688Z,110.10
2019-03-22T06:34:32.298Z,92.73
2019-03-22T06:36:58.924Z,97.83
2019-03-22T06:39:25.676Z,99.47
2019-03-22T06:41:52.456Z,139.70
2019-03-22T06:44:19.131Z,126.77
2019-03-22T06:46:45.813Z,112.70
2019-03-22T06:49:26.022Z,90.60
2019-03-22T06:51:52.758Z,126.40
2019-03-22T06:54:31.124Z,111.00
2019-03-22T06:56:48.234Z,97.87
2019-03-22T06:59:14.938Z,103.93
2019-03-22T07:01:41.849Z,96.07
2019-03-22T07:04:08.607Z,82.27
2019-03-22T07:06:35.716Z,78.03
2019-03-22T07:09:06.351Z,78.57
2019-03-22T07:11:32.944Z,72.57
2019-03-22T07:13:59.830Z,74.97
2019-03-22T07:16:26.830Z,75.53
2019-03-22T07:18:55.391Z,77.80
2019-03-22T07:21:22.106Z,77.87
2019-03-22T07:23:50.268Z,78.90
2019-03-22T07:26:17.017Z,79.07
2019-03-22T07:28:44.108Z,76.03
2019-03-22T07:31:10.648Z,79.77
2019-03-22T07:33:38.413Z,80.63
2019-03-22T07:36:07.116Z,80.73
2019-03-22T07:38:33.773Z,80.77
2019-03-22T07:41:00.416Z,77.53
2019-03-22T07:43:27.019Z,80.70
2019-03-22T07:45:53.792Z,76.47
2019-03-22T07:48:20.623Z,75.67
2019-03-22T07:50:47.224Z,75.70
2019-03-22T07:53:13.830Z,75.63
2019-03-22T07:55:40.369Z,71.63
2019-03-22T07:58:07.009Z,73.77
2019-03-22T08:00:33.988Z,77.60
2019-03-22T08:03:00.716Z,73.43
2019-03-22T08:05:27.324Z,73.27
2019-03-22T08:07:56.027Z,73.93
2019-03-22T08:10:22.442Z,72.50
2019-03-22T08:12:49.249Z,72.97
2019-03-22T08:15:27.872Z,73.97
2019-03-22T08:17:56.974Z,70.60
2019-03-22T08:20:23.647Z,71.93
2019-03-22T08:22:50.594Z,69.50
2019-03-22T08:25:17.167Z,69.10
2019-03-22T08:27:43.867Z,66.57
2019-03-22T08:30:10.806Z,67.30
2019-03-22T08:32:37.656Z,63.60
2019-03-22T08:35:04.794Z,58.53
2019-03-22T08:37:31.426Z,62.30
2019-03-22T08:39:58.046Z,57.20
2019-03-22T08:42:24.885Z,58.30
2019-03-22T08:44:51.667Z,60.67
2019-03-22T08:47:18.277Z,58.40
2019-03-22T08:49:45.189Z,57.77
2019-03-22T08:52:12.294Z,58.20
2019-03-22T08:54:39.003Z,56.23
2019-03-22T08:57:05.646Z,58.10
2019-03-22T08:59:32.289Z,58.60
2019-03-22T09:01:59.056Z,56.40
2019-03-22T09:04:25.788Z,55.33
2019-03-22T09:06:52.617Z,55.10
2019-03-22T09:09:19.467Z,56.73
2019-03-22T09:11:46.331Z,53.20
2019-03-22T09:14:12.976Z,53.03
2019-03-22T09:16:39.685Z,55.07
2019-03-22T09:19:07.456Z,53.47
2019-03-22T09:21:34.341Z,53.10
2019-03-22T09:24:00.915Z,55.67
2019-03-22T09:26:28.641Z,52.37
2019-03-22T09:28:55.434Z,51.10
2019-03-22T09:31:22.054Z,49.83
2019-03-22T09:33:49.095Z,51.70
2019-03-22T09:36:15.817Z,44.43
2019-03-22T09:38:42.735Z,47.77
2019-03-22T09:41:09.310Z,52.93
2019-03-22T09:43:36.241Z,50.23
2019-03-22T09:46:02.891Z,41.60
2019-03-22T09:48:29.523Z,45.73
2019-03-22T09:50:56.313Z,46.10
2019-03-22T09:53:23.075Z,39.47
2019-03-22T09:55:50.711Z,37.77
2019-03-22T09:58:17.518Z,36.13
2019-03-22T10:00:44.303Z,37.07
2019-03-22T10:03:11.195Z,39.87
2019-03-22T10:05:37.976Z,39.63
2019-03-22T10:08:04.732Z,38.40
2019-03-22T10:10:31.729Z,37.80
2019-03-22T10:12:58.374Z,37.63
2019-03-22T10:15:25.263Z,30.80
2019-03-22T10:17:53.797Z,30.00
2019-03-22T10:20:20.535Z,34.20
2019-03-22T10:22:47.309Z,29.50
2019-03-22T10:25:13.951Z,31.83
2019-03-22T10:27:40.607Z,32.20
2019-03-22T10:30:11.262Z,31.80
2019-03-22T10:32:38.962Z,34.60
2019-03-22T10:35:06.011Z,32.13
2019-03-22T10:37:32.875Z,30.13
2019-03-22T10:39:59.460Z,23.70
2019-03-22T10:42:26.122Z,24.03
2019-03-22T10:44:53.178Z,24.20
2019-03-22T10:47:19.802Z,21.70
2019-03-22T10:49:46.444Z,20.47
2019-03-22T10:52:13.061Z,20.80
2019-03-22T10:54:39.665Z,21.83
2019-03-22T10:57:06.642Z,19.33
2019-03-22T10:59:34.428Z,19.13
2019-03-22T11:02:03.631Z,21.33
2019-03-22T11:04:29.631Z,21.23
2019-03-22T11:06:56.339Z,20.93
2019-03-22T11:09:22.975Z,27.17
2019-03-22T11:11:49.604Z,21.77
2019-03-22T11:14:16.259Z,26.03
2019-03-22T11:16:43.276Z,28.87
2019-03-22T11:19:09.885Z,24.03
2019-03-22T11:21:36.525Z,26.50
2019-03-22T11:24:03.767Z,26.30
2019-03-22T11:26:31.669Z,26.57
2019-03-22T11:28:58.417Z,29.57
2019-03-22T11:31:28.611Z,25.93
2019-03-22T11:33:53.743Z,32.50
2019-03-22T11:36:20.587Z,30.20
2019-03-22T11:38:47.233Z,27.63
2019-03-22T11:41:13.867Z,29.37
2019-03-22T11:43:43.165Z,27.80
2019-03-22T11:46:09.801Z,28.93
2019-03-22T11:48:36.539Z,28.23
2019-03-22T11:51:04.050Z,27.60
2019-03-22T11:53:30.831Z,26.63
2019-03-22T11:55:57.541Z,26.67
2019-03-22T11:58:24.562Z,25.00
2019-03-22T12:00:51.297Z,25.57
2019-03-22T12:03:18.008Z,20.40
2019-03-22T12:05:44.841Z,23.10
2019-03-22T12:08:12.291Z,22.87
2019-03-22T12:10:38.921Z,25.13
2019-03-22T12:13:05.547Z,21.73
2019-03-22T12:15:32.541Z,18.73
2019-03-22T12:17:59.157Z,20.07
2019-03-22T12:20:26.465Z,18.80
2019-03-22T12:22:53.185Z,22.00
2019-03-22T12:25:22.959Z,24.53
2019-03-22T12:27:49.800Z,22.77
2019-03-22T12:30:17.217Z,23.70
2019-03-22T12:32:43.857Z,22.90
2019-03-22T12:35:12.111Z,22.77
2019-03-22T12:37:39.831Z,20.60
2019-03-22T12:40:20.559Z,20.33
2019-03-22T12:42:47.765Z,20.93
2019-03-22T12:45:17.895Z,20.93
2019-03-22T12:47:44.670Z,22.67
2019-03-22T12:50:12.933Z,21.53
2019-03-22T12:52:39.680Z,16.63
2019-03-22T12:55:07.513Z,16.23
2019-03-22T12:57:34.235Z,18.77
2019-03-22T13:00:01.053Z,18.30
2019-03-22T13:02:27.918Z,14.37
2019-03-22T13:04:54.645Z,14.97
2019-03-22T13:07:21.270Z,13.43
2019-03-22T13:09:47.981Z,16.53
2019-03-22T13:12:14.502Z,16.50
2019-03-22T13:14:41.108Z,15.93
2019-03-22T13:17:08.209Z,14.23
2019-03-22T13:19:35.955Z,21.83
2019-03-22T13:22:02.790Z,13.83
2019-03-22T13:24:29.497Z,12.50
2019-03-22T13:26:56.207Z,12.77
2019-03-22T13:29:22.931Z,11.37
2019-03-22T13:31:49.649Z,13.20
2019-03-22T13:34:16.363Z,14.50
2019-03-22T13:36:42.979Z,13.60
2019-03-22T13:39:09.869Z,13.23
2019-03-22T13:41:36.570Z,14.50
2019-03-22T13:44:03.423Z,14.00
2019-03-22T13:46:39.769Z,14.93
2019-03-22T13:48:58.847Z,13.47
2019-03-22T13:51:25.499Z,12.93
2019-03-22T13:53:52.261Z,12.97
2019-03-22T13:56:18.928Z,12.67
2019-03-22T13:58:45.591Z,13.90
2019-03-22T14:01:12.202Z,12.83
2019-03-22T14:03:39.935Z,14.60
2019-03-22T14:06:06.631Z,12.93
2019-03-22T14:08:33.340Z,13.10
2019-03-22T14:10:59.963Z,11.93
2019-03-22T14:13:26.578Z,10.13
2019-03-22T14:15:53.231Z,11.20
2019-03-22T14:18:19.933Z,11.10
2019-03-22T14:20:46.654Z,10.23
2019-03-22T14:23:13.593Z,10.77
2019-03-22T14:25:40.337Z,13.77
2019-03-22T14:28:06.934Z,13.47
2019-03-22T14:30:33.703Z,12.17
2019-03-22T14:33:01.017Z,13.47
2019-03-22T14:35:28.520Z,13.77
2019-03-22T14:37:55.367Z,13.60
2019-03-22T14:40:21.995Z,16.77
2019-03-22T14:42:48.642Z,12.97
2019-03-22T14:45:15.521Z,13.50
2019-03-22T14:47:42.809Z,13.57
2019-03-22T14:50:10.261Z,15.07
2019-03-22T14:52:36.905Z,13.67
2019-03-22T14:55:04.899Z,15.70
2019-03-22T14:57:31.518Z,15.67
2019-03-22T14:59:59.238Z,16.00
2019-03-22T15:02:26.057Z,15.87
2019-03-22T15:04:52.717Z,15.37
2019-03-22T15:07:20.211Z,15.87
2019-03-22T15:09:46.960Z,16.37
2019-03-22T15:12:13.795Z,19.70
2019-03-22T15:14:48.517Z,18.63
2019-03-22T15:17:20.450Z,18.30
2019-03-22T15:19:54.752Z,19.00
2019-03-22T15:22:26.060Z,20.53
2019-03-22T15:25:09.731Z,19.90
2019-03-22T15:27:41.326Z,23.67
2019-03-22T15:30:16.546Z,23.30
2019-03-22T15:33:02.285Z,21.07
2019-03-22T15:35:30.892Z,23.70
2019-03-22T15:38:05.442Z,20.23
2019-03-22T15:40:32.058Z,22.50
2019-03-22T15:42:58.862Z,22.60
2019-03-22T15:45:25.704Z,23.47
2019-03-22T15:47:52.492Z,22.40
2019-03-22T15:50:19.312Z,21.80
2019-03-22T15:52:46.073Z,23.80
2019-03-22T15:55:13.316Z,24.63
2019-03-22T15:57:39.872Z,21.37
2019-03-22T16:00:13.416Z,21.87
2019-03-22T16:02:41.587Z,18.13
2019-03-22T16:05:08.744Z,19.80
2019-03-22T16:07:35.621Z,20.87
2019-03-22T16:10:04.750Z,18.07
2019-03-22T16:12:31.400Z,15.17
2019-03-22T16:14:58.143Z,14.70
2019-03-22T16:17:25.880Z,15.47
2019-03-22T16:19:52.606Z,15.60
2019-03-22T16:22:19.621Z,16.13
2019-03-22T16:24:46.481Z,14.40
2019-03-22T16:27:13.319Z,37.00
2019-03-22T16:29:40.068Z,22.20
2019-03-22T16:32:06.862Z,14.03
2019-03-22T16:34:33.830Z,12.70
2019-03-22T16:37:02.361Z,13.93
2019-03-22T16:39:29.101Z,13.37
2019-03-22T16:41:59.886Z,14.23
2019-03-22T16:44:27.331Z,15.90
2019-03-22T16:46:54.096Z,14.70
2019-03-22T16:49:20.762Z,15.33
2019-03-22T16:51:47.686Z,14.80
2019-03-22T16:54:14.392Z,15.80
2019-03-22T16:56:41.052Z,18.47
2019-03-22T16:59:07.682Z,15.23
2019-03-22T17:01:34.306Z,16.83
2019-03-22T17:04:04.730Z,15.43
2019-03-22T17:06:31.660Z,13.33
2019-03-22T17:09:00.282Z,14.30
2019-03-22T17:11:26.877Z,14.17
2019-03-22T17:13:53.622Z,14.63
2019-03-22T17:16:20.290Z,17.63
2019-03-22T17:18:47.025Z,16.47
2019-03-22T17:21:13.674Z,17.17
2019-03-22T17:23:40.302Z,18.77
2019-03-22T17:26:07.930Z,18.70
2019-03-22T17:28:34.806Z,18.13
2019-03-22T17:31:01.476Z,18.67
2019-03-22T17:33:28.493Z,16.77
2019-03-22T17:35:56.513Z,17.17
2019-03-22T17:38:23.343Z,19.13
2019-03-22T17:40:50.005Z,20.37
2019-03-22T17:43:18.250Z,18.87
2019-03-22T17:45:44.951Z,18.13
2019-03-22T17:48:11.827Z,21.33
2019-03-22T17:50:38.541Z,22.77
2019-03-22T17:53:05.419Z,24.63
2019-03-22T17:55:32.279Z,24.77
2019-03-22T17:57:59.313Z,27.53
2019-03-22T18:00:27.420Z,25.00
2019-03-22T18:02:54.230Z,30.67
2019-03-22T18:05:21.104Z,31.37
2019-03-22T18:07:48.044Z,29.60
2019-03-22T18:10:15.014Z,35.30
2019-03-22T18:12:41.691Z,35.70
2019-03-22T18:15:10.155Z,35.97
2019-03-22T18:17:36.984Z,36.30
2019-03-22T18:20:09.883Z,37.33
2019-03-22T18:22:36.525Z,39.70
2019-03-22T18:25:05.623Z,36.87
2019-03-22T18:27:32.461Z,37.83
2019-03-22T18:30:00.805Z,39.33
2019-03-22T18:32:28.255Z,41.30
2019-03-22T18:34:54.917Z,40.30
2019-03-22T18:37:21.636Z,40.47
2019-03-22T18:39:48.932Z,39.07
2019-03-22T18:42:15.821Z,41.67
2019-03-22T18:44:42.471Z,37.63
2019-03-22T18:47:09.263Z,36.93
2019-03-22T18:49:36.031Z,40.70
2019-03-22T18:52:03.096Z,42.43
2019-03-22T18:54:29.680Z,42.40
2019-03-22T18:56:56.382Z,41.87
2019-03-22T18:59:23.211Z,41.83
2019-03-22T19:01:49.869Z,39.63
2019-03-22T19:04:16.588Z,44.87
2019-03-22T19:06:43.226Z,42.67
2019-03-22T19:09:10.244Z,39.43
2019-03-22T19:11:50.469Z,41.10
2019-03-22T19:14:17.185Z,48.70
2019-03-22T19:16:43.801Z,41.90
2019-03-22T19:19:11.685Z,53.27
2019-03-22T19:21:38.413Z,54.70
2019-03-22T19:24:05.352Z,60.83
2019-03-22T19:26:33.225Z,69.77
2019-03-22T19:29:00.187Z,69.10
2019-03-22T19:31:26.833Z,73.23
2019-03-22T19:33:53.603Z,70.07
2019-03-22T19:36:20.220Z,72.70
2019-03-22T19:38:46.847Z,69.20
2019-03-22T19:41:13.740Z,74.20
2019-03-22T19:43:41.745Z,75.77
2019-03-22T19:46:08.537Z,80.87
2019-03-22T19:48:35.266Z,85.90
2019-03-22T19:51:02.870Z,88.27
2019-03-22T19:53:29.513Z,92.13
2019-03-22T19:55:56.252Z,91.37
2019-03-22T19:58:24.804Z,95.10
2019-03-22T20:00:51.877Z,93.10
2019-03-22T20:03:18.678Z,97.43
2019-03-22T20:05:46.273Z,101.87
2019-03-22T20:08:13.969Z,102.93
2019-03-22T20:10:40.925Z,102.57
2019-03-22T20:13:08.652Z,101.57
2019-03-22T20:15:36.370Z,106.33
2019-03-22T20:18:03.289Z,105.73
2019-03-22T20:20:30.110Z,98.80
2019-03-22T20:22:58.741Z,110.40
2019-03-22T20:25:25.515Z,112.20
2019-03-22T20:27:52.159Z,107.50
2019-03-22T20:30:19.105Z,114.47
2019-03-22T20:32:47.913Z,115.53
2019-03-22T20:35:16.707Z,116.23
2019-03-22T20:37:43.281Z,119.83
2019-03-22T20:40:12.857Z,118.00
2019-03-22T20:42:39.598Z,125.40
2019-03-22T20:45:06.533Z,120.47
2019-03-22T20:47:33.075Z,121.53
2019-03-22T20:49:59.920Z,126.43
2019-03-22T20:52:26.656Z,137.03
2019-03-22T20:54:53.393Z,122.90
2019-03-22T20:57:20.265Z,126.70
2019-03-22T20:59:47.281Z,122.97
2019-03-22T21:02:13.902Z,130.77
2019-03-22T21:04:40.659Z,130.20
2019-03-22T21:07:07.293Z,122.77
2019-03-22T21:09:34.151Z,131.07
2019-03-22T21:12:00.872Z,134.17
2019-03-22T21:14:27.508Z,122.77
2019-03-22T21:16:54.212Z,124.10
2019-03-22T21:19:21.135Z,132.43
2019-03-22T21:21:47.910Z,125.73
2019-03-22T21:24:14.810Z,122.57
2019-03-22T21:26:41.464Z,123.43
2019-03-22T21:29:08.178Z,132.80
2019-03-22T21:31:35.086Z,140.60
2019-03-22T21:34:02.973Z,130.03
2019-03-22T21:36:29.909Z,121.53
2019-03-22T21:38:56.714Z,126.77
2019-03-22T21:41:23.331Z,127.47
2019-03-22T21:43:50.191Z,122.93
2019-03-22T21:46:17.049Z,146.70
2019-03-22T21:48:43.822Z,147.87
2019-03-22T21:51:10.455Z,151.40
2019-03-22T21:53:37.250Z,178.90
2019-03-22T21:56:04.015Z,194.63
2019-03-22T21:58:30.718Z,185.60
2019-03-22T22:00:57.499Z,181.57
2019-03-22T22:03:24.330Z,229.43
2019-03-22T22:05:51.230Z,195.77
2019-03-22T22:08:17.972Z,208.20
2019-03-22T22:10:44.610Z,240.77
2019-03-22T22:13:11.297Z,232.13
2019-03-22T22:15:38.124Z,239.33
2019-03-22T22:18:05.844Z,232.37
2019-03-22T22:20:34.586Z,238.93
2019-03-22T22:23:01.261Z,234.50
2019-03-22T22:25:27.899Z,259.83
2019-03-22T22:27:54.635Z,257.70
2019-03-22T22:30:21.396Z,259.43
2019-03-22T22:32:48.346Z,268.10
2019-03-22T22:35:15.077Z,269.07
2019-03-22T22:37:41.991Z,267.27
2019-03-22T22:40:10.069Z,261.77
2019-03-22T22:42:37.171Z,261.33
2019-03-22T22:45:08.891Z,243.63
2019-03-22T22:47:35.947Z,266.63
2019-03-22T22:50:04.790Z,258.60
2019-03-22T22:52:31.423Z,249.77
2019-03-22T22:54:58.051Z,269.27
2019-03-22T22:57:24.820Z,276.63
2019-03-22T22:59:54.130Z,286.20
2019-03-22T23:02:20.863Z,287.77
2019-03-22T23:05:00.788Z,273.03
2019-03-22T23:07:27.416Z,285.67
2019-03-22T23:09:54.262Z,275.53
2019-03-22T23:12:20.914Z,260.20
2019-03-22T23:14:47.563Z,269.53
2019-03-22T23:17:14.208Z,301.07
2019-03-22T23:19:40.850Z,285.73
2019-03-22T23:22:09.590Z,304.43
2019-03-22T23:24:36.334Z,283.13
2019-03-22T23:27:04.227Z,219.20
2019-03-22T23:29:31.130Z,198.70
2019-03-22T23:31:57.958Z,167.30
2019-03-22T23:34:24.853Z,160.40
2019-03-22T23:36:52.811Z,162.37
2019-03-22T23:39:19.830Z,151.90
2019-03-22T23:41:47.381Z,157.03
2019-03-22T23:44:14.412Z,146.60
2019-03-22T23:46:41.346Z,140.90
2019-03-22T23:49:08.186Z,140.23
2019-03-22T23:51:35.077Z,132.80
2019-03-22T23:54:01.806Z,134.53
2019-03-22T23:56:28.698Z,143.13
2019-03-22T23:58:55.500Z,134.83
